X  CloseMetar Aviation Weather Data     EKYT Aalborg Airport

Temperature

21°C Temperature

13°C Dewpoint

60% Humidity



Wind

16 KM/H

10 MPH

 4 M/S

 9 KTS



180°
Due South
Current Conditions

Partly Cloudy Partly Cloudy
Pressure 1012.92 (hPa) - 29.91 (in)
Visibility 6.2 (mi) - 10 (km)
Airport
Airport-code EKYT

Location Aalborg Airport 55 (km)

Metar:
EKYT 271050Z AUTO 18009KT 150V210 9999 FEW037/// SCT065/// BKN100/// 21/13 Q1013

Time: 27-07-2020 12:50